Terminal Aerodrome Forecast
Issued by NWS El Paso, TX

Home | Current Version | Previous Version | Text Only | Print | Product List | Glossary On
Versions: 1 2 3 4 5 6 7 8 9 10 11 12 13 14 15
000
FTUS44 KEPZ 161700 RRA
TAFELP
TAF
KELP 161745Z 1618/1718 24010KT P6SM FEW250
     FM162200 26018G28KT P6SM FEW250
     FM170300 27012KT P6SM FEW200 SCT250
      TEMPO 1704/1708 27017G27KT
     FM171100 03005KT P6SM FEW250
     FM171400 08009KT P6SM FEW250=

USA.gov is the U.S. government's official web portal to all federal, state and local government web resources and services.